Disclaimer

Please do not use the information listed here in-flight or in-navigation, as they are not provided to us by the airports but are provided by volunteers, so they might be outdated.

Search


Regions


Airport information page

No radio frequency information is available.

Airport informations:
Latitude: 14° 56' 58.19" N
Longitude: 102° 18' 45.85" E
Elevation: 765 feet - 233 meters
Operating hours: Remarks
Operating agency: Civil government, landing fees and diplomatic clearance may be required
Timezone: UTC+7
Fuel: N/A

Runway information:
06/24 - 6890 x 148 feet< - >2100 x 45 meters

Recent METARs:
VTUQ 151000Z 00000KT 9999 FEW020TCU FEW025 31/24 Q1010 NOSIG
VTUQ 151100Z 00000KT 9999 SCT025 28/24 Q1010 NOSIG

Airport on the map: